チューリッヒ の空港の天気 - METARとTAF

チューリヒ国際空港 ( LSZH / ZRH ) - スイス チューリッヒ
飛行場実況気象(Metar)
観測時間12/14 07:20 CET (12/14 06:20 UTC)
風向・風速不定 2m/s
視程10km以上
天気現象
少しの雲 雲底高度 580m
全天の8割程度の雲 雲底高度 2590m
気温-2℃
湿度74%
気圧1015hPa
METARLSZH 140620Z VRB03KT 9999 FEW019 BKN085 M02/M06 Q1015 NOSIG
過去の天気等 Google飛行場航空写真 Wunderground天気予報

過去48時間のMETAR

飛行場予報(TAF)
発表時間: 12/14 06:25 CET (12/14 05:25 UTC)
予報対象時間: 14日7時 CET ~ 15日13時 CET
風向・風速北東 3m/s
視程10km以上
少しの雲 雲底高度 550m
全天の8割程度の雲 雲底高度 2440m
14日7時 CET から 確率 30% で
全天の8割程度の雲 雲底高度 430m
14日7時 CET ~ 14日9時 CET に徐々に
風向・風速北東 4m/s
14日19時 CET ~ 14日21時 CET に徐々に
風向・風速不定 2m/s
14日23時 CET ~ 15日2時 CET に徐々に
全天を覆う雲 雲底高度 400m
15日3時 CET から 確率 40% で
視程4000m
天気現象もや
15日11時 CET ~ 15日13時 CET に徐々に
全天の8割程度の雲 雲底高度 460m
TAF LSZH 140525Z 1406/1512 04005KT 9999 FEW018 BKN080 TX00/1414Z TNM02/1406Z TNM04/1505Z
PROB30 1406/1409 BKN014
BECMG 1406/1408 05008KT
BECMG 1418/1420 VRB03KT
BECMG 1422/1501 OVC013
PROB40 1502/1509 4000 BR
BECMG 1510/1512 BKN015